Time;durP1;ratioP1;P1;durP2;ratioP2;P2;SDS_P1;SDS_P2;PMS_P1;PMS_P2;Temp;Humidity;BMP_temperature;BMP_pressure;BME280_temperature;BME280_humidity;BME280_pressure;Samples;Min_cycle;Max_cycle;Signal;HPM_P1;HPM_P2
2022/07/02 00:00:49;;;;;;;2.53;0.90;;;;;;;10.33;90.42;100670.97;6185051;23;20001;-76
2022/07/02 00:03:51;;;;;;;;;;;;;;;;;;;;;
2022/07/02 00:06:40;;;;;;;8.65;1.08;;;;;;;10.34;90.63;100670.75;6184691;23;20429;-75
2022/07/02 00:13:22;;;;;;;2.13;0.70;;;;;;;10.50;91.46;100707.28;6051356;22;20016;-74
2022/07/02 00:15:57;;;;;;;2.75;0.95;;;;;;;10.36;91.42;100686.88;6254191;22;20015;-76
2022/07/02 00:18:25;;;;;;;2.45;0.90;;;;;;;10.39;91.79;100700.03;6278915;22;19999;-75
2022/07/02 00:24:25;;;;;;;1.52;0.60;;;;;;;10.36;91.95;100704.09;6194022;22;20015;-75
2022/07/02 00:28:09;;;;;;;5.60;0.95;;;;;;;10.21;91.40;100674.69;6250639;22;20053;-75
2022/07/02 00:30:26;;;;;;;2.10;0.95;;;;;;;10.21;91.69;100673.88;6171952;22;20040;-72
2022/07/02 00:33:26;;;;;;;;;;;;;;;;;;;;;
2022/07/02 00:36:21;;;;;;;3.47;0.98;;;;;;;10.26;92.09;100682.91;6280009;22;20031;-75
2022/07/02 00:43:05;;;;;;;;;;;;;;;;;;;;;
2022/07/02 00:46:15;;;;;;;;;;;;;;;;;;;;;
2022/07/02 01:14:13;;;;;;;;;;;;;;;;;;;;;
2022/07/02 01:16:42;;;;;;;9.25;1.88;;;;;;;10.35;93.59;100636.84;5952163;24;20036;-75
2022/07/02 01:19:33;;;;;;;5.78;1.50;;;;;;;10.44;94.12;100639.94;5965721;23;20015;-76
2022/07/02 01:22:15;;;;;;;3.55;1.17;;;;;;;10.50;93.86;100649.84;6018305;23;20388;-74
2022/07/02 01:28:18;;;;;;;9.48;1.55;;;;;;;10.36;94.48;100637.69;6244222;22;20334;-76
2022/07/02 01:31:20;;;;;;;4.35;1.77;;;;;;;10.47;94.76;100653.91;6268348;22;20010;-75
2022/07/02 01:33:48;;;;;;;5.75;1.45;;;;;;;10.44;95.26;100648.13;6250906;22;20008;-75
2022/07/02 01:36:21;;;;;;;5.55;1.30;;;;;;;10.47;95.42;100655.84;6254384;22;20010;-74
2022/07/02 01:38:48;;;;;;;8.70;1.10;;;;;;;10.45;95.60;100647.06;6276663;22;20007;-76
2022/07/02 01:43:57;;;;;;;5.60;1.33;;;;;;;10.34;95.96;100642.56;6277607;22;20065;-75
2022/07/02 01:46:28;;;;;;;8.27;1.50;;;;;;;10.27;95.96;100635.38;6226112;22;20058;-76
2022/07/02 01:48:56;;;;;;;7.50;1.90;;;;;;;10.29;96.35;100644.16;6277124;22;20004;-74
2022/07/02 01:51:24;;;;;;;3.35;1.10;;;;;;;10.31;96.23;100641.97;6275953;22;20031;-77
2022/07/02 01:54:00;;;;;;;5.47;1.10;;;;;;;10.20;96.55;100623.84;6252809;22;20070;-74
2022/07/02 01:56:25;;;;;;;6.32;1.65;;;;;;;10.17;96.27;100629.81;6278480;22;20006;-75
2022/07/02 01:58:53;;;;;;;7.80;1.52;;;;;;;10.20;96.76;100634.75;6279404;22;20015;-74
2022/07/02 02:01:20;;;;;;;3.80;1.17;;;;;;;10.03;96.73;100623.09;6278222;22;20004;-76
2022/07/02 02:03:46;;;;;;;7.53;1.50;;;;;;;10.10;96.84;100637.41;6277846;22;20031;-74
2022/07/02 02:06:37;;;;;;;4.68;1.27;;;;;;;10.05;97.35;100626.44;6252572;22;20015;-75
2022/07/02 02:09:23;;;;;;;;;;;;;;;;;;;;;
2022/07/02 02:15:15;;;;;;;4.55;1.40;;;;;;;10.02;97.16;100605.09;6213553;23;20063;-74
2022/07/02 02:17:43;;;;;;;4.38;1.65;;;;;;;10.18;97.69;100626.00;6222147;22;20007;-75
2022/07/02 02:20:09;;;;;;;6.53;1.33;;;;;;;10.16;97.91;100627.34;6226289;22;20071;-75
2022/07/02 02:22:34;;;;;;;4.53;1.88;;;;;;;10.10;97.80;100624.56;6279842;22;20090;-74
2022/07/02 02:25:07;;;;;;;2.13;1.10;;;;;;;10.01;98.26;100609.72;6251875;22;20003;-74
2022/07/02 02:27:50;;;;;;;;;;;;;;;;;;;;;
2022/07/02 02:30:16;;;;;;;2.08;0.90;;;;;;;9.95;98.26;100611.56;6276434;22;20035;-74
2022/07/02 02:32:42;;;;;;;4.85;1.00;;;;;;;10.00;98.73;100618.97;6251976;22;20012;-74
2022/07/02 02:35:15;;;;;;;7.50;1.45;;;;;;;9.92;98.36;100606.63;6249983;22;19995;-74
2022/07/02 02:37:41;;;;;;;4.05;1.20;;;;;;;9.94;99.05;100609.94;6276039;22;20011;-73
2022/07/02 02:40:09;;;;;;;4.50;1.38;;;;;;;9.93;98.77;100608.28;6278714;22;20004;-75
2022/07/02 02:42:35;;;;;;;2.80;1.02;;;;;;;9.94;98.95;100604.47;6254667;22;20014;-75
2022/07/02 02:45:01;;;;;;;2.30;1.35;;;;;;;9.99;98.72;100613.78;6228594;22;20045;-75
2022/07/02 02:47:26;;;;;;;6.93;1.88;;;;;;;9.93;98.98;100608.28;6253927;22;20003;-77
2022/07/02 02:49:52;;;;;;;5.28;1.27;;;;;;;9.94;98.70;100609.94;6278893;22;20355;-76
2022/07/02 02:52:18;;;;;;;3.40;1.13;;;;;;;9.94;98.86;100596.28;6252921;22;20023;-74
2022/07/02 02:54:54;;;;;;;5.03;1.25;;;;;;;10.04;98.91;100608.38;6251274;22;20004;-73
2022/07/02 02:57:52;;;;;;;;;;;;;;;;;;;;;
2022/07/02 03:00:49;;;;;;;;;;;;;;;;;;;;;
2022/07/02 03:06:26;;;;;;;;;;;;;;;;;;;;;
2022/07/02 03:08:52;;;;;;;7.30;1.40;;;;;;;10.19;99.20;100592.13;6274889;22;20087;-75
2022/07/02 03:11:43;;;;;;;9.25;1.15;;;;;;;10.29;99.39;100603.16;6279199;22;20007;-73
2022/07/02 03:14:17;;;;;;;3.50;0.93;;;;;;;10.21;99.45;100581.75;6252028;22;20008;-74
2022/07/02 03:16:46;;;;;;;7.97;1.00;;;;;;;10.43;98.79;100617.25;6253515;22;20011;-74
2022/07/02 03:19:12;;;;;;;3.35;0.85;;;;;;;10.34;98.89;100607.03;6251322;22;20007;-73
2022/07/02 03:21:37;;;;;;;3.60;0.98;;;;;;;10.38;99.08;100613.63;6226206;22;20039;-75
2022/07/02 03:27:47;;;;;;;4.07;1.00;;;;;;;10.26;99.17;100600.91;6187416;23;20100;-74
2022/07/02 03:30:13;;;;;;;3.72;1.15;;;;;;;10.24;98.91;100602.28;6178001;22;20114;-73
2022/07/02 03:32:38;;;;;;;1.95;1.05;;;;;;;10.29;98.73;100614.09;6253984;22;20054;-74
2022/07/02 03:35:26;;;;;;;;;;;;;;;;;;;;;
2022/07/02 03:38:04;;;;;;;;;;;;;;;;;;;;;
2022/07/02 03:43:41;;;;;;;4.55;1.50;;;;;;;10.10;99.00;100590.94;6252770;22;20016;-71
2022/07/02 03:53:01;;;;;;;2.72;1.00;;;;;;;10.17;99.20;100591.56;6114622;23;20368;-73
2022/07/02 03:56:15;;;;;;;3.78;1.05;;;;;;;10.06;99.35;100576.16;6242508;22;20015;-73
2022/07/02 03:58:57;;;;;;;;;;;;;;;;;;;;;
2022/07/02 04:19:29;;;;;;;4.95;1.08;;;;;;;10.50;98.98;100611.56;6158765;23;20024;-74
2022/07/02 04:22:32;;;;;;;;;;;;;;;;;;;;;
2022/07/02 04:29:49;;;;;;;1.73;0.80;;;;;;;10.67;98.69;100610.59;6042817;23;20102;-74
2022/07/02 04:33:13;;;;;;;3.40;1.15;;;;;;;10.72;98.80;100614.19;5957705;23;20013;-72
2022/07/02 04:35:39;;;;;;;7.43;1.00;;;;;;;10.76;97.82;100617.22;5962374;23;20007;-70
2022/07/02 04:38:05;;;;;;;1.85;0.60;;;;;;;10.83;98.17;100626.03;6179952;22;20331;-71
2022/07/02 04:40:35;;;;;;;6.47;2.00;;;;;;;10.88;97.96;100612.41;6227633;22;20004;-70
2022/07/02 04:43:01;;;;;;;5.65;1.33;;;;;;;11.01;97.76;100624.78;6252291;22;20008;-72
2022/07/02 04:45:30;;;;;;;7.43;1.40;;;;;;;11.02;97.07;100614.66;6225485;22;20089;-72
2022/07/02 04:47:55;;;;;;;4.75;1.27;;;;;;;11.09;96.75;100607.84;6228062;22;20091;-72
2022/07/02 04:50:58;;;;;;;8.15;1.23;;;;;;;11.28;96.96;100613.72;6226688;22;20004;-73
2022/07/02 04:53:24;;;;;;;2.55;1.00;;;;;;;11.30;96.25;100600.59;6250970;22;20019;-70
2022/07/02 04:55:59;;;;;;;6.03;1.67;;;;;;;11.38;95.49;100601.19;6228063;22;20398;-72
2022/07/02 04:59:44;;;;;;;5.90;1.30;;;;;;;11.39;94.94;100583.63;6251465;22;20011;-71
2022/07/02 05:02:53;;;;;;;13.75;1.50;;;;;;;11.77;94.87;100603.47;6156810;22;20013;-71
2022/07/02 05:05:37;;;;;;;;;;;;;;;;;;;;;
2022/07/02 05:08:26;;;;;;;;;;;;;;;;;;;;;
2022/07/02 05:11:05;;;;;;;2.63;1.42;;;;;;;12.31;93.45;100616.78;6252882;22;20082;-73
2022/07/02 05:13:34;;;;;;;5.82;1.05;;;;;;;12.45;92.66;100617.06;6280977;22;20000;-74
2022/07/02 05:16:03;;;;;;;1.83;0.93;;;;;;;12.66;91.11;100623.38;6229319;22;20091;-72
2022/07/02 05:18:29;;;;;;;5.32;1.30;;;;;;;12.88;90.90;100623.09;6254059;22;20365;-71
2022/07/02 05:20:57;;;;;;;4.38;0.90;;;;;;;12.92;90.39;100609.63;6228689;22;20008;-75
2022/07/02 05:23:23;;;;;;;3.85;0.75;;;;;;;13.01;89.91;100632.66;6229293;22;20034;-74
2022/07/02 05:26:10;;;;;;;5.20;1.50;;;;;;;13.00;89.65;100622.78;6229471;22;20004;-74
2022/07/02 05:29:06;;;;;;;6.22;1.67;;;;;;;13.03;89.32;100594.78;6254307;22;20010;-74
2022/07/02 05:32:38;;;;;;;;;;;;;;;;;;;;;
2022/07/02 06:04:57;;;;;;;5.07;1.00;;;;;;;14.64;83.03;100625.84;6327674;22;19963;-75
2022/07/02 06:07:44;;;;;;;6.85;1.40;;;;;;;14.56;83.35;100596.16;6327203;22;20026;-73
2022/07/02 06:10:21;;;;;;;4.88;1.15;;;;;;;14.88;83.10;100627.81;6292708;22;20006;-75
2022/07/02 06:13:24;;;;;;;8.18;0.93;;;;;;;14.68;81.36;100598.56;6294040;22;20007;-76
2022/07/02 06:16:34;;;;;;;;;;;;;;;;;;;;;
2022/07/02 06:19:55;;;;;;;;;;;;;;;;;;;;;
2022/07/02 06:22:16;;;;;;;5.43;1.13;;;;;;;14.47;81.71;100598.69;6244480;22;20360;-75
2022/07/02 06:25:14;;;;;;;4.05;1.17;;;;;;;14.58;82.13;100618.72;6198821;23;20015;-76
2022/07/02 06:27:42;;;;;;;5.53;1.30;;;;;;;14.69;81.74;100622.22;6313300;22;20006;-77
2022/07/02 06:30:08;;;;;;;7.78;0.98;;;;;;;14.54;80.86;100587.38;6289670;22;19995;-78
2022/07/02 06:32:34;;;;;;;7.25;1.20;;;;;;;14.71;81.06;100620.81;6317459;22;20007;-76
2022/07/02 06:35:05;;;;;;;5.10;1.10;;;;;;;14.72;80.64;100611.47;6316163;22;20011;-75
2022/07/02 06:37:33;;;;;;;7.03;1.20;;;;;;;14.70;80.24;100605.41;6315362;22;20437;-77
2022/07/02 06:40:14;;;;;;;3.65;1.05;;;;;;;14.82;79.73;100602.28;6315272;22;20001;-78
2022/07/02 06:49:11;;;;;;;;;;;;;;;;;;;;;
2022/07/02 06:51:40;;;;;;;6.32;1.17;;;;;;;16.07;73.90;100610.72;6345106;22;20026;-78
2022/07/02 06:54:05;;;;;;;8.55;1.52;;;;;;;16.27;72.96;100609.63;6318493;22;20014;-76
2022/07/02 06:57:24;;;;;;;;;;;;;;;;;;;;;
2022/07/02 07:00:31;;;;;;;;;;;;;;;;;;;;;
2022/07/02 07:03:03;;;;;;;4.05;1.10;;;;;;;16.31;71.06;100624.44;6277650;22;20029;-76
2022/07/02 07:06:35;;;;;;;;;;;;;;;;;;;;;
2022/07/02 07:09:11;;;;;;;3.50;0.90;;;;;;;16.47;71.03;100639.66;6338808;22;20018;-76
2022/07/02 07:11:48;;;;;;;9.65;1.27;;;;;;;16.47;70.17;100636.03;6344648;22;20002;-76
2022/07/02 07:14:59;;;;;;;8.68;2.25;;;;;;;16.63;69.74;100645.72;6316291;22;20026;-75
2022/07/02 07:18:23;;;;;;;8.27;1.02;;;;;;;16.81;68.82;100630.22;6314651;22;20136;-78
2022/07/02 07:21:11;;;;;;;7.38;0.93;;;;;;;17.19;66.80;100648.66;6311852;22;20041;-77
2022/07/02 07:24:26;;;;;;;;;;;;;;;;;;;;;
2022/07/02 07:27:28;;;;;;;;;;;;;;;;;;;;;
2022/07/02 07:29:54;;;;;;;8.02;1.05;;;;;;;16.86;66.15;100621.84;6316126;22;20059;-76
2022/07/02 07:32:25;;;;;;;5.30;1.00;;;;;;;16.72;67.06;100621.03;6312029;22;19998;-76
2022/07/02 07:35:18;;;;;;;7.00;0.80;;;;;;;16.75;67.03;100636.97;6283631;22;20011;-76
2022/07/02 07:42:09;;;;;;;;;;;;;;;;;;;;;
2022/07/02 07:45:22;;;;;;;4.28;0.90;;;;;;;16.10;69.48;100655.06;6100270;23;20033;-77
2022/07/02 07:47:50;;;;;;;5.55;0.90;;;;;;;15.66;70.48;100601.88;6100232;23;20048;-75
2022/07/02 07:50:15;;;;;;;3.83;0.73;;;;;;;15.75;69.97;100631.53;6183798;23;20004;-74
2022/07/02 07:52:43;;;;;;;6.03;1.00;;;;;;;15.77;70.23;100635.66;6136308;23;20012;-76
2022/07/02 07:55:11;;;;;;;1.92;0.80;;;;;;;15.66;70.71;100628.63;6218951;22;20027;-75
2022/07/02 07:57:39;;;;;;;8.35;1.60;;;;;;;15.65;70.99;100644.34;6343614;22;20014;-75
2022/07/02 08:00:06;;;;;;;6.13;0.93;;;;;;;15.56;70.48;100643.34;6316940;22;20007;-78
2022/07/02 08:02:31;;;;;;;4.45;0.90;;;;;;;15.54;71.08;100654.66;6343965;22;20007;-77
2022/07/02 08:05:11;;;;;;;3.85;1.20;;;;;;;15.29;72.06;100635.69;6341905;22;20007;-76
2022/07/02 08:07:41;;;;;;;5.93;0.95;;;;;;;15.17;72.86;100639.66;6285815;22;20065;-76
2022/07/02 08:10:10;;;;;;;7.18;1.30;;;;;;;14.98;73.79;100641.50;6309149;22;19998;-76
2022/07/02 08:12:46;;;;;;;4.13;1.10;;;;;;;14.86;74.45;100643.81;6312049;22;20029;-77
2022/07/02 08:15:17;;;;;;;7.55;1.27;;;;;;;14.88;74.63;100636.09;6316752;22;20033;-76
2022/07/02 08:17:43;;;;;;;4.10;1.08;;;;;;;15.04;74.47;100634.84;6316958;22;19999;-76
2022/07/02 08:20:10;;;;;;;7.03;1.40;;;;;;;15.11;73.88;100646.34;6346009;22;20074;-77
2022/07/02 08:22:39;;;;;;;5.00;1.40;;;;;;;15.03;74.14;100638.69;6293024;22;20014;-78
2022/07/02 08:25:06;;;;;;;5.75;1.20;;;;;;;15.09;74.15;100648.56;6291005;22;20041;-77
2022/07/02 08:27:33;;;;;;;4.68;1.00;;;;;;;15.06;73.83;100659.34;6315911;22;20066;-79
2022/07/02 08:29:59;;;;;;;4.05;1.00;;;;;;;14.99;74.01;100665.16;6315605;22;19998;-78
2022/07/02 08:32:25;;;;;;;5.00;1.05;;;;;;;15.01;73.64;100660.22;6318150;22;20006;-77
2022/07/02 08:34:53;;;;;;;3.28;0.93;;;;;;;15.32;73.18;100651.63;6290996;22;20437;-78
2022/07/02 08:37:21;;;;;;;12.93;1.27;;;;;;;15.47;72.18;100642.38;6316288;22;20089;-78
2022/07/02 08:39:47;;;;;;;3.83;0.90;;;;;;;15.87;71.59;100651.25;6315250;22;20037;-77
2022/07/02 08:42:29;;;;;;;4.53;0.90;;;;;;;16.31;69.96;100654.78;6341832;22;20003;-78
2022/07/02 08:45:02;;;;;;;2.47;0.80;;;;;;;16.79;67.93;100654.56;6318662;22;20003;-78
2022/07/02 08:47:28;;;;;;;8.02;1.08;;;;;;;17.24;66.38;100627.28;6316825;22;20084;-78
2022/07/02 08:49:56;;;;;;;5.40;1.20;;;;;;;17.82;64.45;100641.56;6292844;22;20064;-77
2022/07/02 08:52:29;;;;;;;4.32;0.80;;;;;;;17.94;63.66;100643.84;6314401;22;20010;-78
2022/07/02 08:55:06;;;;;;;;;;;;;;;;;;;;;
2022/07/02 08:57:51;;;;;;;3.15;1.05;;;;;;;17.49;64.00;100643.66;6318963;22;20029;-77
2022/07/02 09:00:21;;;;;;;9.68;1.23;;;;;;;17.26;64.47;100636.06;6341082;22;20006;-77
2022/07/02 09:02:49;;;;;;;10.13;0.90;;;;;;;17.21;65.10;100638.91;6315326;22;20002;-76
2022/07/02 09:05:20;;;;;;;9.65;1.00;;;;;;;17.53;64.46;100642.72;6316202;22;20011;-75
2022/07/02 09:07:46;;;;;;;6.03;1.13;;;;;;;18.03;62.14;100650.25;6316512;22;20064;-77
2022/07/02 09:10:17;;;;;;;4.60;0.98;;;;;;;18.31;61.16;100634.41;6313878;22;20006;-77
2022/07/02 09:12:44;;;;;;;3.65;1.02;;;;;;;18.18;59.69;100628.91;6343157;22;20003;-77
2022/07/02 09:15:14;;;;;;;5.43;1.00;;;;;;;17.70;61.71;100633.81;6289709;22;20007;-76
2022/07/02 09:17:46;;;;;;;5.13;1.25;;;;;;;17.37;62.33;100613.75;6316169;22;20332;-76
2022/07/02 09:20:12;;;;;;;4.15;1.15;;;;;;;17.67;61.94;100623.38;6292484;22;20007;-76
2022/07/02 09:22:44;;;;;;;6.22;1.83;;;;;;;18.58;59.47;100616.03;6344068;22;20467;-77
2022/07/02 09:26:13;;;;;;;9.07;1.65;;;;;;;19.61;57.58;100621.59;6316625;22;20003;-78
2022/07/02 09:40:39;;;;;;;;;;;;;;;;;;;;;
2022/07/02 09:43:40;;;;;;;7.75;0.80;;;;;;;18.17;60.38;100597.66;6124948;23;20038;-74
2022/07/02 09:46:33;;;;;;;3.20;1.13;;;;;;;18.44;59.80;100629.13;6074427;23;20010;-79
2022/07/02 09:49:27;;;;;;;4.80;1.02;;;;;;;18.10;60.91;100630.47;6276519;22;20004;-76
2022/07/02 09:52:07;;;;;;;4.40;0.75;;;;;;;17.70;60.74;100599.81;6257998;22;20092;-76
2022/07/02 09:54:55;;;;;;;4.03;0.73;;;;;;;17.56;61.50;100617.22;6252053;22;20016;-76
2022/07/02 10:01:18;;;;;;;6.28;0.65;;;;;;;17.44;61.83;100614.16;6248022;23;20004;-76
2022/07/02 10:04:11;;;;;;;;;;;;;;;;;;;;;
2022/07/02 10:06:43;;;;;;;7.07;0.90;;;;;;;17.57;61.92;100621.63;6295436;22;20046;-75
2022/07/02 10:09:12;;;;;;;7.22;0.90;;;;;;;17.41;61.98;100632.19;6342910;22;20464;-77
2022/07/02 10:12:01;;;;;;;;;;;;;;;;;;;;;
2022/07/02 10:15:41;;;;;;;3.70;1.55;;;;;;;18.00;61.36;100625.19;6342770;22;20383;-74
2022/07/02 10:18:03;;;;;;;5.25;1.00;;;;;;;19.02;58.17;100611.59;6325435;22;20003;-76
2022/07/02 10:23:58;;;;;;;3.40;0.73;;;;;;;18.70;57.09;100631.25;6253367;22;20021;-75
2022/07/02 10:27:04;;;;;;;4.00;0.80;;;;;;;18.37;56.69;100606.59;6313227;22;20015;-75
2022/07/02 10:29:39;;;;;;;4.63;0.70;;;;;;;18.36;57.24;100599.44;6314807;22;20002;-75
2022/07/02 10:32:47;;;;;;;5.30;0.60;;;;;;;19.28;55.23;100619.19;6341571;22;20052;-75
2022/07/02 10:35:28;;;;;;;3.70;0.70;;;;;;;20.32;53.11;100622.53;6344517;22;20045;-75
2022/07/02 10:38:09;;;;;;;2.78;0.63;;;;;;;21.21;50.72;100620.06;6312899;22;20006;-75
2022/07/02 10:45:16;;;;;;;;;;;;;;;;;;;;;
2022/07/02 10:48:10;;;;;;;6.20;0.73;;;;;;;21.34;48.97;100629.34;6296581;22;20033;-76
2022/07/02 10:50:42;;;;;;;3.05;0.70;;;;;;;22.02;47.27;100634.06;6314546;22;20068;-73
2022/07/02 10:53:21;;;;;;;3.83;0.90;;;;;;;23.67;43.74;100599.16;6315351;22;20029;-75
2022/07/02 10:56:05;;;;;;;4.85;1.08;;;;;;;24.86;41.12;100617.41;6287284;22;20302;-74
2022/07/02 10:58:34;;;;;;;6.45;0.98;;;;;;;23.66;42.84;100622.69;6342201;22;19998;-76
2022/07/02 11:01:29;;;;;;;;;;;;;;;;;;;;;
2022/07/02 11:04:03;;;;;;;2.92;0.70;;;;;;;22.81;44.92;100617.47;6340782;22;20073;-76
2022/07/02 11:06:36;;;;;;;2.45;0.70;;;;;;;22.46;45.16;100595.53;6312648;22;20040;-75
2022/07/02 11:09:06;;;;;;;5.00;0.88;;;;;;;22.14;46.21;100611.03;6311966;22;20021;-75
2022/07/02 11:12:19;;;;;;;1.75;0.45;;;;;;;21.47;47.45;100601.63;6314348;22;20026;-74
2022/07/02 11:14:57;;;;;;;6.80;0.63;;;;;;;21.75;48.34;100588.88;6303210;22;20037;-74
2022/07/02 11:17:35;;;;;;;2.30;0.50;;;;;;;23.02;45.47;100599.84;6313108;22;20002;-74
2022/07/02 11:20:01;;;;;;;6.70;0.60;;;;;;;22.76;43.21;100611.28;6342151;22;20016;-76
2022/07/02 11:22:31;;;;;;;4.63;0.82;;;;;;;21.97;46.00;100600.81;6289417;22;20038;-74
2022/07/02 11:24:59;;;;;;;4.82;0.57;;;;;;;21.77;47.06;100602.44;6314966;22;20003;-74
2022/07/02 11:27:35;;;;;;;;;;;;;;;;;;;;;
2022/07/02 11:30:01;;;;;;;7.05;0.50;;;;;;;20.55;48.20;100587.03;6343039;22;20014;-76
2022/07/02 11:32:35;;;;;;;2.25;0.60;;;;;;;19.76;50.38;100577.91;6317597;22;20010;-75
2022/07/02 11:35:34;;;;;;;;;;;;;;;;;;;;;
2022/07/02 11:38:02;;;;;;;1.65;0.47;;;;;;;19.50;52.31;100609.16;6344332;22;20018;-76
2022/07/02 11:40:39;;;;;;;4.82;0.60;;;;;;;19.89;51.33;100593.63;6345333;22;20003;-79
2022/07/02 11:43:28;;;;;;;1.10;0.50;;;;;;;20.07;50.33;100594.44;6315776;22;20018;-76
2022/07/02 11:45:56;;;;;;;3.17;0.55;;;;;;;20.12;49.44;100590.66;6318540;22;20010;-75
2022/07/02 11:48:23;;;;;;;5.82;0.60;;;;;;;20.53;49.06;100603.22;6290343;22;20705;-73
2022/07/02 11:50:57;;;;;;;0.60;0.40;;;;;;;20.50;49.72;100603.88;6318010;22;20333;-75
2022/07/02 11:53:23;;;;;;;1.08;0.50;;;;;;;21.39;47.81;100581.88;6316816;22;20049;-74
2022/07/02 11:55:50;;;;;;;2.88;0.60;;;;;;;22.01;45.84;100585.09;6315232;22;20002;-75
2022/07/02 11:58:22;;;;;;;2.15;0.60;;;;;;;22.44;44.19;100597.84;6311943;22;20161;-75
2022/07/02 12:00:51;;;;;;;2.60;0.68;;;;;;;23.36;42.85;100592.22;6316975;22;20030;-72
2022/07/02 12:03:16;;;;;;;2.05;0.55;;;;;;;24.09;40.80;100595.28;6288899;22;20018;-75
2022/07/02 12:05:56;;;;;;;1.88;0.50;;;;;;;23.62;41.42;100577.09;6290555;22;20019;-74
2022/07/02 12:08:33;;;;;;;3.33;0.73;;;;;;;23.42;41.98;100603.97;6314946;22;20041;-76
2022/07/02 12:11:28;;;;;;;;;;;;;;;;;;;;;
2022/07/02 12:14:07;;;;;;;1.35;0.40;;;;;;;24.17;41.00;100585.94;6340977;22;20085;-75
2022/07/02 12:16:57;;;;;;;;;;;;;;;;;;;;;
2022/07/02 12:19:38;;;;;;;6.68;0.60;;;;;;;22.19;44.93;100601.66;6345331;22;20018;-75
2022/07/02 12:22:05;;;;;;;4.10;0.47;;;;;;;21.52;46.80;100568.88;6318746;22;20017;-74
2022/07/02 12:24:37;;;;;;;2.25;0.73;;;;;;;22.69;45.71;100564.47;6346921;22;20006;-74
2022/07/02 12:27:12;;;;;;;2.35;0.70;;;;;;;24.47;41.75;100564.03;6345381;22;20303;-75
2022/07/02 12:29:56;;;;;;;1.92;0.70;;;;;;;25.68;39.46;100589.06;6317844;22;20025;-75
2022/07/02 12:32:26;;;;;;;14.50;0.70;;;;;;;24.98;40.29;100562.59;6317741;22;20093;-74
2022/07/02 12:34:54;;;;;;;5.60;1.05;;;;;;;24.72;40.94;100566.72;6344005;22;20022;-74
2022/07/02 12:37:38;;;;;;;2.72;0.70;;;;;;;24.74;41.11;100581.97;6344937;22;20026;-74
2022/07/02 12:40:12;;;;;;;1.15;0.50;;;;;;;26.00;38.73;100566.59;6344113;22;19999;-76
2022/07/02 12:42:52;;;;;;;3.67;0.70;;;;;;;25.47;38.99;100556.59;6344330;22;19999;-73
2022/07/02 12:45:29;;;;;;;1.58;0.45;;;;;;;24.46;41.08;100570.81;6318121;22;20317;-76
2022/07/02 12:48:00;;;;;;;0.98;0.32;;;;;;;24.03;41.60;100569.56;6344907;22;20660;-74
2022/07/02 12:50:32;;;;;;;2.67;0.52;;;;;;;23.12;43.89;100582.69;6319592;22;20010;-74
2022/07/02 12:53:05;;;;;;;3.20;0.80;;;;;;;22.52;46.03;100571.06;6346280;22;20329;-76
2022/07/02 12:56:36;;;;;;;;;;;;;;;;;;;;;
2022/07/02 13:00:03;;;;;;;4.13;0.70;;;;;;;21.83;48.34;100567.72;6239002;23;20036;-76
2022/07/02 13:02:47;;;;;;;;;;;;;;;;;;;;;
2022/07/02 13:06:02;;;;;;;;;;;;;;;;;;;;;
2022/07/02 13:08:28;;;;;;;3.67;0.80;;;;;;;20.81;51.96;100572.28;6300833;22;20346;-76
2022/07/02 13:10:57;;;;;;;6.70;1.10;;;;;;;20.51;53.04;100570.22;6292700;22;20013;-72
2022/07/02 13:13:23;;;;;;;2.55;0.73;;;;;;;20.39;53.84;100572.84;6293480;22;20007;-74
2022/07/02 13:15:49;;;;;;;2.80;0.70;;;;;;;20.10;54.37;100566.00;6319244;22;20003;-74
2022/07/02 13:18:15;;;;;;;3.63;0.85;;;;;;;19.46;56.98;100558.25;6319905;22;20070;-73
2022/07/02 13:20:41;;;;;;;7.55;1.23;;;;;;;18.56;65.37;100554.63;6318297;22;20321;-73
2022/07/02 13:23:07;;;;;;;3.30;0.75;;;;;;;18.07;67.80;100570.22;6269106;22;20015;-74
2022/07/02 13:25:35;;;;;;;2.88;0.70;;;;;;;18.68;65.62;100562.34;6319432;22;20057;-75
2022/07/02 13:28:03;;;;;;;2.88;0.65;;;;;;;19.89;61.96;100549.22;6322251;22;20003;-74
2022/07/02 13:30:29;;;;;;;4.68;0.63;;;;;;;21.00;57.42;100558.03;6321995;22;19999;-74
2022/07/02 13:33:41;;;;;;;4.50;0.85;;;;;;;21.37;54.77;100556.34;6319008;22;20444;-78
2022/07/02 14:05:29;;;;;;;;;;;;;;;;;;;;;
2022/07/02 14:08:25;;;;;;;;;;;;;;;;;;;;;
2022/07/02 14:15:16;;;;;;;;;;;;;;;;;;;;;
2022/07/02 14:21:38;;;;;;;;;;;;;;;;;;;;;
2022/07/02 14:25:06;;;;;;;;;;;;;;;;;;;;;
2022/07/02 19:10:28;;;;;;;;;;;;;;;;;;;;;
2022/07/02 19:13:17;;;;;;;;;;;;;;;;;;;;;
2022/07/02 20:09:01;;;;;;;;;;;;;;;;;;;;;
2022/07/02 20:11:30;;;;;;;0.93;0.40;;;;;;;14.77;73.34;100611.41;5848665;24;20133;-73
2022/07/02 20:14:05;;;;;;;;;;;;;;;;;;;;;
2022/07/02 20:16:41;;;;;;;3.80;0.57;;;;;;;14.63;73.77;100593.91;6092049;22;20037;-73
2022/07/02 20:19:09;;;;;;;2.70;0.68;;;;;;;14.64;73.73;100603.81;6282645;22;20026;-75
2022/07/02 20:21:40;;;;;;;0.77;0.40;;;;;;;14.56;73.65;100591.50;6285502;22;20018;-75
2022/07/02 20:24:06;;;;;;;3.03;0.65;;;;;;;14.65;73.64;100616.50;6260280;22;20049;-73
2022/07/02 20:26:31;;;;;;;3.30;0.43;;;;;;;14.46;73.97;100597.88;6285867;22;20007;-73
2022/07/02 20:28:59;;;;;;;0.57;0.30;;;;;;;14.47;74.00;100610.53;6257666;22;20010;-73
2022/07/02 20:31:26;;;;;;;0.75;0.40;;;;;;;14.45;73.96;100618.25;6312270;22;20007;-73
2022/07/02 20:33:51;;;;;;;1.90;0.40;;;;;;;14.36;74.29;100603.47;6285886;22;20056;-74
2022/07/02 20:36:17;;;;;;;1.98;0.40;;;;;;;14.49;74.55;100633.09;6287067;22;20372;-74
2022/07/02 20:38:45;;;;;;;1.58;0.50;;;;;;;14.32;74.86;100613.41;6313142;22;20011;-74
2022/07/02 20:41:11;;;;;;;2.55;0.68;;;;;;;14.27;74.84;100628.03;6314066;22;20401;-73
2022/07/02 20:43:39;;;;;;;1.40;0.50;;;;;;;14.14;75.32;100634.97;6313556;22;20364;-72
2022/07/02 20:46:06;;;;;;;1.45;0.45;;;;;;;13.92;75.77;100637.31;6286415;22;20070;-75
2022/07/02 20:48:31;;;;;;;3.58;0.40;;;;;;;13.77;76.29;100639.03;6312947;22;19999;-73
2022/07/02 20:50:57;;;;;;;2.05;0.50;;;;;;;13.76;77.21;100650.31;6286478;22;20326;-73
2022/07/02 20:53:22;;;;;;;1.48;0.30;;;;;;;13.60;77.31;100647.63;6312182;22;20068;-73
2022/07/02 20:55:48;;;;;;;0.40;0.40;;;;;;;13.42;77.54;100649.06;6314366;22;19999;-74
2022/07/02 20:58:14;;;;;;;0.50;0.40;;;;;;;13.30;78.50;100653.19;6288514;22;21095;-75
2022/07/02 21:00:40;;;;;;;1.08;0.50;;;;;;;13.23;78.45;100656.25;6265373;22;20007;-73
2022/07/02 21:03:06;;;;;;;1.45;0.40;;;;;;;13.20;79.33;100660.38;6343429;22;20010;-72
2022/07/02 21:05:31;;;;;;;1.08;0.35;;;;;;;13.22;79.18;100662.84;6343891;22;20018;-73
2022/07/02 21:07:57;;;;;;;1.05;0.60;;;;;;;13.28;78.68;100667.22;6317548;22;20002;-74
2022/07/02 21:10:25;;;;;;;2.03;0.60;;;;;;;13.24;79.42;100666.09;6291797;22;20010;-74
2022/07/02 21:12:54;;;;;;;1.55;0.40;;;;;;;13.17;80.05;100655.44;6292601;22;19997;-73
2022/07/02 21:15:19;;;;;;;1.15;0.45;;;;;;;13.13;81.00;100659.81;6315672;22;20026;-73
2022/07/02 21:17:45;;;;;;;0.93;0.57;;;;;;;13.03;80.85;100660.66;6289754;22;20022;-74
2022/07/02 21:20:11;;;;;;;3.78;0.93;;;;;;;12.91;81.46;100657.41;6265127;22;20011;-74
2022/07/02 21:22:36;;;;;;;0.55;0.47;;;;;;;12.87;81.99;100659.03;6315782;22;19999;-74
2022/07/02 21:25:02;;;;;;;2.65;0.60;;;;;;;12.85;82.11;100663.97;6312794;22;20018;-72
2022/07/02 21:27:30;;;;;;;3.40;0.47;;;;;;;12.89;82.60;100659.56;6287291;22;20015;-71
2022/07/02 21:29:55;;;;;;;2.33;0.75;;;;;;;12.95;82.04;100668.63;6313109;22;20094;-74
2022/07/02 21:32:21;;;;;;;1.33;0.40;;;;;;;12.98;81.79;100662.59;6315969;22;20002;-74
2022/07/02 21:34:46;;;;;;;3.35;0.60;;;;;;;12.99;81.79;100664.25;6267093;22;20007;-73
2022/07/02 21:37:14;;;;;;;0.30;0.30;;;;;;;12.90;81.47;100658.47;6317565;22;20033;-71
2022/07/02 21:39:59;;;;;;;;;;;;;;;;;;;;;
2022/07/02 22:10:36;;;;;;;1.33;0.43;;;;;;;11.26;87.05;100643.28;6208999;22;20016;31
2022/07/02 22:13:05;;;;;;;0.40;0.25;;;;;;;11.06;87.41;100629.47;6251517;22;20023;-75
2022/07/02 22:15:39;;;;;;;0.28;0.20;;;;;;;10.96;87.42;100636.50;6256844;22;20029;-77
2022/07/02 22:18:05;;;;;;;0.38;0.30;;;;;;;10.92;87.74;100640.88;6233134;22;20035;-74
2022/07/02 22:23:15;;;;;;;0.30;0.30;;;;;;;10.78;87.86;100628.75;6283160;22;20010;-76
2022/07/02 22:25:41;;;;;;;0.90;0.60;;;;;;;10.88;88.47;100656.16;6256543;22;20008;-76
2022/07/02 22:28:06;;;;;;;0.43;0.38;;;;;;;10.77;88.18;100638.84;6257645;22;20003;-78
2022/07/02 22:30:53;;;;;;;1.23;0.50;;;;;;;10.90;88.03;100664.94;6285971;22;19996;-75
2022/07/02 22:33:19;;;;;;;0.57;0.45;;;;;;;11.00;88.07;100654.06;6283769;22;20422;-74